createdAt,value
2022-09-27T00:01:03.091Z,0
2022-09-27T00:04:28.462Z,0
2022-09-27T00:07:53.895Z,0
2022-09-27T00:11:19.323Z,0
2022-09-27T00:14:44.792Z,0
2022-09-27T00:18:10.197Z,0
2022-09-27T00:21:35.616Z,0
2022-09-27T00:25:01.016Z,0
2022-09-27T00:28:26.425Z,0
2022-09-27T00:31:51.872Z,0
2022-09-27T00:35:17.267Z,0
2022-09-27T00:38:42.670Z,0
2022-09-27T00:42:08.087Z,0
2022-09-27T00:45:33.491Z,0
2022-09-27T00:48:58.989Z,0
2022-09-27T00:52:24.342Z,0
2022-09-27T00:55:49.768Z,0
2022-09-27T00:59:15.244Z,0
2022-09-27T01:02:40.627Z,0
2022-09-27T01:06:06.024Z,0
2022-09-27T01:09:31.456Z,0
2022-09-27T01:12:56.830Z,0
2022-09-27T01:16:22.304Z,0
2022-09-27T01:19:47.594Z,0
2022-09-27T01:23:13.028Z,0
2022-09-27T01:26:38.400Z,0
2022-09-27T01:30:03.834Z,0
2022-09-27T01:33:29.229Z,0
2022-09-27T01:36:54.652Z,0
2022-09-27T01:40:20.130Z,0
2022-09-27T01:43:45.462Z,0
2022-09-27T01:47:10.885Z,0
2022-09-27T01:50:36.306Z,0
2022-09-27T01:54:01.744Z,0
2022-09-27T01:57:27.185Z,0
2022-09-27T02:00:52.592Z,0
2022-09-27T02:04:18.022Z,0
2022-09-27T02:07:43.424Z,0
2022-09-27T02:11:08.831Z,0
2022-09-27T02:14:34.281Z,0
2022-09-27T02:17:59.692Z,0
2022-09-27T02:21:25.096Z,0
2022-09-27T02:24:50.554Z,0
2022-09-27T02:28:15.958Z,0
2022-09-27T02:31:41.390Z,0
2022-09-27T02:35:06.787Z,0
2022-09-27T02:38:32.225Z,0
2022-09-27T02:41:57.624Z,0
2022-09-27T02:45:23.038Z,0
2022-09-27T02:48:48.458Z,0
2022-09-27T02:52:13.812Z,0
2022-09-27T02:55:39.231Z,0
2022-09-27T02:59:04.632Z,0
2022-09-27T03:02:30.143Z,0
2022-09-27T03:05:55.521Z,0
2022-09-27T03:09:20.947Z,0
2022-09-27T03:12:46.319Z,0
2022-09-27T03:16:11.759Z,0
2022-09-27T03:19:37.162Z,0
2022-09-27T03:23:02.551Z,0
2022-09-27T03:26:27.966Z,0
2022-09-27T03:29:53.386Z,0
2022-09-27T03:33:18.793Z,0
2022-09-27T03:36:44.164Z,0
2022-09-27T03:40:09.617Z,0
2022-09-27T03:43:35.015Z,0
2022-09-27T03:47:00.433Z,0
2022-09-27T03:50:25.876Z,0
2022-09-27T03:53:51.298Z,0
2022-09-27T03:57:16.734Z,0
2022-09-27T04:00:42.087Z,0
2022-09-27T04:04:11.028Z,0
2022-09-27T04:07:32.931Z,0
2022-09-27T04:10:58.340Z,0
2022-09-27T04:14:23.785Z,0
2022-09-27T04:17:49.170Z,0
2022-09-27T04:21:14.568Z,0
2022-09-27T04:24:39.995Z,0
2022-09-27T04:28:05.410Z,0
2022-09-27T04:31:30.883Z,0
2022-09-27T04:34:56.226Z,0
2022-09-27T04:38:21.711Z,0
2022-09-27T04:41:47.159Z,0
2022-09-27T04:45:12.607Z,0
2022-09-27T04:48:38.162Z,0
2022-09-27T04:52:03.531Z,0
2022-09-27T04:55:28.943Z,0
2022-09-27T04:58:54.440Z,0
2022-09-27T05:02:19.914Z,0
2022-09-27T05:05:45.288Z,0
2022-09-27T05:09:10.726Z,0
2022-09-27T05:12:36.095Z,0
2022-09-27T05:16:01.554Z,0
2022-09-27T05:19:26.929Z,0
2022-09-27T05:22:52.441Z,0
2022-09-27T05:26:17.824Z,0
2022-09-27T05:29:43.302Z,0
2022-09-27T05:33:08.710Z,0
2022-09-27T05:36:34.132Z,0
2022-09-27T05:40:01.211Z,0
2022-09-27T05:43:25.006Z,0
2022-09-27T05:46:50.435Z,0
2022-09-27T05:50:15.908Z,0
2022-09-27T05:53:41.321Z,0
2022-09-27T05:57:06.782Z,0
2022-09-27T06:00:32.211Z,0
2022-09-27T06:03:57.655Z,0
2022-09-27T06:07:23.077Z,0
2022-09-27T06:10:48.496Z,6
2022-09-27T06:14:14.015Z,6
2022-09-27T06:17:39.421Z,6
2022-09-27T06:21:04.815Z,0
2022-09-27T06:24:30.276Z,0
2022-09-27T06:27:55.672Z,6
2022-09-27T06:31:21.191Z,0
2022-09-27T06:34:46.488Z,6
2022-09-27T06:38:11.934Z,0
2022-09-27T06:41:37.318Z,0
2022-09-27T06:45:02.773Z,6
2022-09-27T06:48:28.190Z,0
2022-09-27T06:51:53.564Z,0
2022-09-27T06:55:18.998Z,0
2022-09-27T06:58:44.456Z,0
2022-09-27T07:02:09.984Z,0
2022-09-27T07:05:35.401Z,0
2022-09-27T07:09:00.802Z,6
2022-09-27T07:12:26.233Z,6
2022-09-27T07:15:51.646Z,6
2022-09-27T07:19:17.115Z,6
2022-09-27T07:22:42.516Z,11
2022-09-27T07:26:07.842Z,6
2022-09-27T07:29:33.228Z,6
2022-09-27T07:32:58.651Z,6
2022-09-27T07:36:24.102Z,11
2022-09-27T07:39:49.650Z,23
2022-09-27T07:43:14.962Z,17
2022-09-27T07:46:40.405Z,11
2022-09-27T07:50:05.818Z,11
2022-09-27T07:53:31.223Z,11
2022-09-27T07:56:56.706Z,17
2022-09-27T08:00:22.078Z,11
2022-09-27T08:03:47.487Z,11
2022-09-27T08:07:14.439Z,17
2022-09-27T08:10:38.313Z,17
2022-09-27T08:14:03.791Z,17
2022-09-27T08:17:29.153Z,17
2022-09-27T08:20:54.570Z,17
2022-09-27T08:24:20.036Z,11
2022-09-27T08:27:45.426Z,11
2022-09-27T08:31:10.907Z,6
2022-09-27T08:34:36.273Z,6
2022-09-27T08:38:01.728Z,6
2022-09-27T08:41:27.161Z,11
2022-09-27T08:44:52.603Z,11
2022-09-27T08:48:18.064Z,6
2022-09-27T08:51:43.436Z,6
2022-09-27T08:55:08.829Z,17
2022-09-27T08:58:34.260Z,17
2022-09-27T09:01:59.751Z,17
2022-09-27T09:05:25.177Z,23
2022-09-27T09:08:51.183Z,23
2022-09-27T09:12:16.051Z,17
2022-09-27T09:15:41.465Z,11
2022-09-27T09:19:06.843Z,6
2022-09-27T09:22:32.298Z,6
2022-09-27T09:25:57.689Z,0
2022-09-27T09:29:23.114Z,6
2022-09-27T09:32:48.492Z,6
2022-09-27T09:36:13.974Z,6
2022-09-27T09:39:39.422Z,6
2022-09-27T09:43:04.821Z,11
2022-09-27T09:46:30.250Z,11
2022-09-27T09:49:55.593Z,6
2022-09-27T09:53:20.883Z,6
2022-09-27T09:56:46.360Z,11
2022-09-27T10:00:11.735Z,11
2022-09-27T10:03:37.179Z,17
2022-09-27T10:07:02.665Z,11
2022-09-27T10:10:28.108Z,17
2022-09-27T10:13:53.598Z,17
2022-09-27T10:17:18.995Z,23
2022-09-27T10:20:44.452Z,17
2022-09-27T10:24:13.638Z,23
2022-09-27T10:27:35.258Z,17
2022-09-27T10:31:00.679Z,11
2022-09-27T10:34:26.059Z,17
2022-09-27T10:37:52.386Z,28
2022-09-27T10:41:17.791Z,28
2022-09-27T10:44:43.218Z,28
2022-09-27T10:48:08.823Z,34
2022-09-27T10:51:34.247Z,34
2022-09-27T10:54:59.689Z,28
2022-09-27T10:58:25.181Z,11
2022-09-27T11:01:50.597Z,39
2022-09-27T11:05:16.276Z,62
2022-09-27T11:08:41.503Z,45
2022-09-27T11:12:06.946Z,39
2022-09-27T11:15:32.334Z,11
2022-09-27T11:18:57.775Z,11
2022-09-27T11:22:23.195Z,6
2022-09-27T11:25:48.562Z,11
2022-09-27T11:29:14.002Z,11
2022-09-27T11:32:39.410Z,6
2022-09-27T11:36:04.836Z,0
2022-09-27T11:39:30.282Z,0
2022-09-27T11:42:55.698Z,6
2022-09-27T11:46:27.525Z,11
2022-09-27T11:49:46.586Z,11
2022-09-27T11:53:12.010Z,34
2022-09-27T11:56:37.451Z,62
2022-09-27T12:00:02.888Z,28
2022-09-27T12:03:28.302Z,39
2022-09-27T12:06:53.710Z,34
2022-09-27T12:10:19.198Z,17
2022-09-27T12:13:44.660Z,11
2022-09-27T12:17:10.133Z,11
2022-09-27T12:20:35.606Z,17
2022-09-27T12:24:01.016Z,23
2022-09-27T12:27:26.414Z,28
2022-09-27T12:31:01.300Z,39
2022-09-27T12:34:19.737Z,45
2022-09-27T12:37:42.708Z,34
2022-09-27T12:41:08.200Z,23
2022-09-27T12:44:33.650Z,39
2022-09-27T12:47:59.821Z,23
2022-09-27T12:51:25.270Z,11
2022-09-27T12:54:50.667Z,34
2022-09-27T12:58:16.163Z,39
2022-09-27T13:01:41.774Z,39
2022-09-27T13:05:07.197Z,11
2022-09-27T13:08:34.187Z,11
2022-09-27T13:11:59.668Z,11
2022-09-27T13:15:25.065Z,11
2022-09-27T13:18:50.500Z,17
2022-09-27T13:22:15.980Z,11
2022-09-27T13:25:41.369Z,11
2022-09-27T13:29:06.859Z,11
2022-09-27T13:32:32.302Z,17
2022-09-27T13:35:57.691Z,17
2022-09-27T13:39:23.201Z,23
2022-09-27T13:42:55.513Z,28
2022-09-27T13:46:21.103Z,23
2022-09-27T13:49:46.552Z,23
2022-09-27T13:53:12.028Z,23
2022-09-27T13:56:37.416Z,23
2022-09-27T14:00:02.929Z,11
2022-09-27T14:03:28.309Z,11
2022-09-27T14:06:53.770Z,11
2022-09-27T14:10:19.192Z,17
2022-09-27T14:13:44.692Z,17
2022-09-27T14:17:10.510Z,17
2022-09-27T14:20:35.563Z,17
2022-09-27T14:24:01.054Z,23
2022-09-27T14:27:26.575Z,17
2022-09-27T15:04:58.597Z,6
2022-09-27T15:08:23.951Z,11
2022-09-27T15:11:49.290Z,11
2022-09-27T15:15:14.645Z,6
2022-09-27T15:18:39.978Z,11
2022-09-27T15:22:05.342Z,6
2022-09-27T15:25:30.680Z,11
2022-09-27T15:28:56.064Z,11
2022-09-27T15:32:21.380Z,11
2022-09-27T15:35:46.719Z,6
2022-09-27T15:39:12.159Z,11
2022-09-27T15:42:37.857Z,17
2022-09-27T15:46:03.491Z,11
2022-09-27T15:49:29.526Z,11
2022-09-27T15:52:54.814Z,11
2022-09-27T15:56:20.218Z,11
2022-09-27T15:59:45.667Z,6
2022-09-27T16:03:11.083Z,6
2022-09-27T16:06:36.496Z,0
2022-09-27T16:10:01.977Z,0
2022-09-27T16:13:31.799Z,6
2022-09-27T16:16:52.869Z,6
2022-09-27T16:20:18.344Z,6
2022-09-27T16:23:43.776Z,0
2022-09-27T16:27:09.286Z,0
2022-09-27T16:30:34.773Z,0
2022-09-27T16:34:00.204Z,0
2022-09-27T16:37:25.699Z,0
2022-09-27T16:40:51.215Z,0
2022-09-27T16:44:16.805Z,0
2022-09-27T16:47:42.117Z,0
2022-09-27T16:51:07.577Z,0
2022-09-27T16:54:32.981Z,0
2022-09-27T16:57:58.442Z,0
2022-09-27T17:01:24.090Z,0
2022-09-27T17:04:49.540Z,0
2022-09-27T17:08:14.980Z,0
2022-09-27T17:11:40.406Z,0
2022-09-27T17:15:05.887Z,0
2022-09-27T17:18:31.352Z,0
2022-09-27T17:21:56.822Z,0
2022-09-27T17:25:22.336Z,0
2022-09-27T17:28:47.828Z,0
2022-09-27T17:32:13.225Z,0
2022-09-27T17:35:38.690Z,0
2022-09-27T17:39:04.156Z,0
2022-09-27T17:42:29.545Z,0
2022-09-27T17:45:54.960Z,0
2022-09-27T17:49:20.444Z,0
2022-09-27T17:52:45.888Z,0
2022-09-27T17:56:11.364Z,0
2022-09-27T17:59:36.715Z,0
2022-09-27T18:03:02.271Z,0
2022-09-27T18:06:27.652Z,0
2022-09-27T18:09:53.143Z,0
2022-09-27T18:13:18.640Z,0
2022-09-27T18:16:44.056Z,0
2022-09-27T18:20:09.548Z,0
2022-09-27T18:23:35.042Z,0
2022-09-27T18:27:00.488Z,0
2022-09-27T18:30:26.013Z,0
2022-09-27T18:33:51.385Z,0
2022-09-27T18:37:16.793Z,0
2022-09-27T18:40:55.960Z,0
2022-09-27T18:44:07.692Z,0
2022-09-27T18:47:33.168Z,0
2022-09-27T18:50:58.552Z,0
2022-09-27T18:54:24.037Z,0
2022-09-27T18:57:49.467Z,0
2022-09-27T19:01:14.912Z,0
2022-09-27T19:04:40.307Z,0
2022-09-27T19:08:05.747Z,0
2022-09-27T19:11:31.206Z,0
2022-09-27T19:14:56.653Z,0
2022-09-27T19:18:22.129Z,0
2022-09-27T19:21:47.611Z,0
2022-09-27T19:25:13.053Z,0
2022-09-27T19:28:38.492Z,0
2022-09-27T19:32:03.959Z,0
2022-09-27T19:35:29.422Z,0
2022-09-27T19:38:54.914Z,0
2022-09-27T19:42:20.343Z,0
2022-09-27T19:45:45.722Z,0
2022-09-27T19:49:11.138Z,0
2022-09-27T19:52:36.542Z,0
2022-09-27T19:56:01.998Z,0
2022-09-27T19:59:27.374Z,0
2022-09-27T20:02:52.817Z,0
2022-09-27T20:06:18.146Z,0
2022-09-27T20:09:43.536Z,0
2022-09-27T20:13:08.955Z,0
2022-09-27T20:16:36.962Z,0
2022-09-27T20:19:59.751Z,0
2022-09-27T20:23:25.151Z,0
2022-09-27T20:26:50.498Z,0
2022-09-27T20:30:15.926Z,0
2022-09-27T20:33:41.266Z,0
2022-09-27T20:37:06.624Z,0
2022-09-27T20:40:32.078Z,0
2022-09-27T20:43:57.348Z,0
2022-09-27T20:47:22.803Z,0
2022-09-27T20:50:48.129Z,0
2022-09-27T20:54:13.508Z,0
2022-09-27T20:57:56.239Z,0
2022-09-27T21:01:04.327Z,0
2022-09-27T21:04:29.675Z,0
2022-09-27T21:07:54.986Z,0
2022-09-27T21:11:20.352Z,0
2022-09-27T21:14:45.745Z,0
2022-09-27T21:18:11.072Z,0
2022-09-27T21:21:36.530Z,0
2022-09-27T21:25:01.897Z,0
2022-09-27T21:28:27.281Z,0
2022-09-27T21:31:52.655Z,0
2022-09-27T21:35:18.024Z,0
2022-09-27T21:38:43.421Z,0
2022-09-27T21:42:08.765Z,0
2022-09-27T21:45:34.166Z,0
2022-09-27T21:48:59.539Z,0
2022-09-27T21:52:24.911Z,0
2022-09-27T21:55:50.411Z,0
2022-09-27T21:59:15.838Z,0
2022-09-27T22:02:41.093Z,0
2022-09-27T22:06:06.473Z,0
2022-09-27T22:09:31.879Z,0
2022-09-27T22:12:57.219Z,0
2022-09-27T22:16:22.609Z,0
2022-09-27T22:19:47.946Z,0
2022-09-27T22:23:13.340Z,0
2022-09-27T22:26:38.715Z,0
2022-09-27T22:30:04.134Z,0
2022-09-27T22:33:29.506Z,0
2022-09-27T22:36:54.883Z,0
2022-09-27T22:40:20.269Z,0
2022-09-27T22:43:45.659Z,0
2022-09-27T22:47:11.126Z,0
2022-09-27T22:50:36.438Z,0
2022-09-27T22:54:01.824Z,0
2022-09-27T22:57:27.176Z,0
2022-09-27T23:00:52.651Z,0
2022-09-27T23:04:18.027Z,0
2022-09-27T23:07:43.397Z,0
2022-09-27T23:11:08.772Z,0
2022-09-27T23:14:34.142Z,0
2022-09-27T23:17:59.507Z,0
2022-09-27T23:21:24.944Z,0
2022-09-27T23:24:50.304Z,0
2022-09-27T23:28:15.695Z,0
2022-09-27T23:31:41.171Z,0
2022-09-27T23:35:06.442Z,0
2022-09-27T23:38:31.837Z,0
2022-09-27T23:41:57.217Z,0
2022-09-27T23:45:22.569Z,0
2022-09-27T23:48:47.977Z,0
2022-09-27T23:52:13.313Z,0
2022-09-27T23:55:38.692Z,0
2022-09-27T23:59:04.058Z,0
